createdAt,value
2018-02-25T00:02:12.300Z,-4.14
2018-02-25T00:04:40.566Z,-4.14
2018-02-25T00:07:09.633Z,-4.82
2018-02-25T00:09:37.907Z,-4.61
2018-02-25T00:12:06.166Z,-3.78
2018-02-25T00:14:34.454Z,-3.97
2018-02-25T00:17:02.713Z,-3.95
2018-02-25T00:19:30.998Z,-3.88
2018-02-25T00:21:59.253Z,-3.54
2018-02-25T00:24:27.533Z,-3.80
2018-02-25T00:26:55.798Z,-3.72
2018-02-25T00:29:24.094Z,-3.52
2018-02-25T00:31:52.360Z,-3.60
2018-02-25T00:34:21.410Z,-3.69
2018-02-25T00:36:49.668Z,-3.75
2018-02-25T00:39:17.958Z,-3.95
2018-02-25T00:41:46.220Z,-4.20
2018-02-25T00:44:15.268Z,-4.20
2018-02-25T00:46:43.523Z,-4.23
2018-02-25T00:49:12.573Z,-4.41
2018-02-25T00:51:40.873Z,-4.68
2018-02-25T00:54:09.154Z,-4.23
2018-02-25T00:56:37.417Z,-4.66
2018-02-25T00:59:05.690Z,-4.45
2018-02-25T01:01:33.947Z,-4.51
2018-02-25T01:04:02.221Z,-4.91
2018-02-25T01:06:31.209Z,-4.77
2018-02-25T01:08:59.494Z,-4.75
2018-02-25T01:11:27.760Z,-4.85
2018-02-25T01:13:56.046Z,-4.64
2018-02-25T01:16:24.318Z,-4.68
2018-02-25T01:18:53.374Z,-4.92
2018-02-25T01:21:21.632Z,-4.98
2018-02-25T01:23:49.913Z,-4.97
2018-02-25T01:26:18.184Z,-4.51
2018-02-25T01:28:46.453Z,-4.58
2018-02-25T01:31:14.740Z,-4.90
2018-02-25T01:33:43.012Z,-5.25
2018-02-25T01:36:11.384Z,-4.49
2018-02-25T01:38:39.659Z,-4.71
2018-02-25T01:41:07.928Z,-5.31
2018-02-25T01:43:36.196Z,-4.80
2018-02-25T01:46:05.245Z,-4.52
2018-02-25T01:48:33.533Z,-4.38
2018-02-25T01:51:05.389Z,-5.03
2018-02-25T01:53:33.665Z,-4.73
2018-02-25T01:56:02.712Z,-4.93
2018-02-25T01:58:30.998Z,-4.84
2018-02-25T02:00:59.280Z,-4.71
2018-02-25T02:03:27.558Z,-4.52
2018-02-25T02:05:55.838Z,-4.07
2018-02-25T02:08:24.093Z,-4.22
2018-02-25T02:10:53.134Z,-4.53
2018-02-25T02:13:21.396Z,-4.63
2018-02-25T02:15:50.440Z,-4.58
2018-02-25T02:18:18.693Z,-4.83
2018-02-25T02:20:47.743Z,-4.82
2018-02-25T02:23:16.015Z,-4.63
2018-02-25T02:25:44.292Z,-4.41
2018-02-25T02:28:12.557Z,-5.07
2018-02-25T02:30:41.050Z,-4.66
2018-02-25T02:33:10.098Z,-4.66
2018-02-25T02:35:38.369Z,-4.90
2018-02-25T02:38:06.649Z,-5.06
2018-02-25T02:40:34.905Z,-4.93
2018-02-25T02:43:03.194Z,-4.85
2018-02-25T02:45:31.480Z,-5.21
2018-02-25T02:47:59.802Z,-5.30
2018-02-25T02:50:28.106Z,-5.13
2018-02-25T02:52:56.400Z,-4.97
2018-02-25T02:55:24.661Z,-4.67
2018-02-25T02:57:53.713Z,-4.74
2018-02-25T03:00:21.977Z,-4.97
2018-02-25T03:02:50.249Z,-4.59
2018-02-25T03:05:19.272Z,-5.17
2018-02-25T03:07:47.565Z,-5.01
2018-02-25T03:10:15.830Z,-5.15
2018-02-25T03:12:44.107Z,-5.61
2018-02-25T03:15:13.150Z,-5.59
2018-02-25T03:17:41.422Z,-5.49
2018-02-25T03:20:09.685Z,-5.21
2018-02-25T03:22:38.721Z,-6.01
2018-02-25T03:25:06.982Z,-6.08
2018-02-25T03:27:36.033Z,-5.78
2018-02-25T03:30:04.307Z,-5.90
2018-02-25T03:32:32.585Z,-5.72
2018-02-25T03:35:00.857Z,-5.92
2018-02-25T03:37:29.904Z,-5.88
2018-02-25T03:39:58.172Z,-5.58
2018-02-25T03:42:26.457Z,-5.74
2018-02-25T03:44:54.735Z,-5.19
2018-02-25T03:47:23.774Z,-5.46
2018-02-25T03:49:52.033Z,-5.29
2018-02-25T03:52:20.320Z,-5.74
2018-02-25T03:54:48.614Z,-5.90
2018-02-25T03:57:16.876Z,-5.78
2018-02-25T03:59:45.928Z,-5.57
2018-02-25T04:02:14.194Z,-5.02
2018-02-25T04:04:42.468Z,-4.52
2018-02-25T04:07:11.505Z,-4.46
2018-02-25T04:09:39.784Z,-4.38
2018-02-25T04:12:08.058Z,-4.20
2018-02-25T04:14:36.340Z,-4.25
2018-02-25T04:17:05.376Z,-4.69
2018-02-25T04:19:33.674Z,-4.76
2018-02-25T04:22:01.977Z,-5.18
2018-02-25T04:24:30.256Z,-6.12
2018-02-25T04:26:58.559Z,-5.91
2018-02-25T04:29:26.830Z,-6.29
2018-02-25T04:31:55.100Z,-6.73
2018-02-25T04:34:23.395Z,-6.86
2018-02-25T04:36:51.684Z,-6.90
2018-02-25T04:39:20.000Z,-7.26
2018-02-25T04:41:48.290Z,-6.67
2018-02-25T04:44:16.577Z,-6.41
2018-02-25T04:46:44.856Z,-6.50
2018-02-25T04:49:13.163Z,-6.33
2018-02-25T04:51:41.690Z,-6.21
2018-02-25T04:54:10.764Z,-6.08
2018-02-25T04:56:39.028Z,-6.05
2018-02-25T04:59:07.329Z,-6.18
2018-02-25T05:01:35.609Z,-6.23
2018-02-25T05:04:03.902Z,-6.21
2018-02-25T05:06:32.180Z,-6.22
2018-02-25T05:09:00.470Z,-6.31
2018-02-25T05:11:28.739Z,-6.65
2018-02-25T05:13:57.034Z,-6.60
2018-02-25T05:16:25.312Z,-6.79
2018-02-25T05:18:53.609Z,-6.87
2018-02-25T05:21:22.796Z,-6.93
2018-02-25T05:23:52.000Z,-7.15
2018-02-25T05:26:21.053Z,-7.15
2018-02-25T05:28:49.350Z,-7.25
2018-02-25T05:31:17.624Z,-7.62
2018-02-25T05:33:45.917Z,-7.63
2018-02-25T05:36:14.215Z,-7.48
2018-02-25T05:38:42.510Z,-7.89
2018-02-25T05:41:10.794Z,-7.77
2018-02-25T05:43:39.084Z,-7.99
2018-02-25T05:46:07.364Z,-7.91
2018-02-25T05:48:35.648Z,-8.18
2018-02-25T05:51:03.941Z,-8.18
2018-02-25T05:53:32.232Z,-8.03
2018-02-25T05:56:00.525Z,-8.00
2018-02-25T05:58:28.800Z,-8.05
2018-02-25T06:00:57.077Z,-7.97
2018-02-25T06:03:26.180Z,-7.84
2018-02-25T06:05:54.469Z,-7.75
2018-02-25T06:08:22.753Z,-7.77
2018-02-25T06:10:51.032Z,-7.72
2018-02-25T06:13:19.312Z,-7.67
2018-02-25T06:15:47.588Z,-7.73
2018-02-25T06:18:16.642Z,-7.74
2018-02-25T06:20:44.926Z,-7.93
2018-02-25T06:23:13.222Z,-7.89
2018-02-25T06:25:41.498Z,-7.94
2018-02-25T06:28:09.780Z,-7.88
2018-02-25T06:30:38.055Z,-7.85
2018-02-25T06:33:06.350Z,-7.88
2018-02-25T06:35:34.637Z,-7.85
2018-02-25T06:38:02.912Z,-7.81
2018-02-25T06:40:31.218Z,-7.88
2018-02-25T06:42:59.501Z,-7.81
2018-02-25T06:45:27.788Z,-7.75
2018-02-25T06:47:56.071Z,-7.66
2018-02-25T06:50:24.370Z,-7.64
2018-02-25T06:52:52.648Z,-7.57
2018-02-25T06:55:20.953Z,-7.71
2018-02-25T06:57:49.219Z,-7.63
2018-02-25T07:00:17.504Z,-7.46
2018-02-25T07:02:46.540Z,-7.34
2018-02-25T07:05:15.051Z,-7.20
2018-02-25T07:07:43.317Z,-7.35
2018-02-25T07:10:11.608Z,-7.03
2018-02-25T07:12:39.889Z,-6.77
2018-02-25T07:15:08.186Z,-6.60
2018-02-25T07:17:37.385Z,-6.47
2018-02-25T07:20:05.672Z,-6.16
2018-02-25T07:22:33.945Z,-6.09
2018-02-25T07:25:02.229Z,-5.83
2018-02-25T07:27:31.278Z,-5.44
2018-02-25T07:29:59.548Z,-5.64
2018-02-25T07:32:27.827Z,-5.33
2018-02-25T07:34:56.116Z,-5.12
2018-02-25T07:37:24.381Z,-5.38
2018-02-25T07:39:53.434Z,-5.95
2018-02-25T07:42:21.790Z,-6.25
2018-02-25T07:44:49.989Z,-6.23
2018-02-25T07:47:18.254Z,-6.37
2018-02-25T07:49:54.945Z,-5.79
2018-02-25T07:52:23.966Z,-5.72
2018-02-25T07:54:52.231Z,-5.46
2018-02-25T07:57:21.294Z,-5.36
2018-02-25T07:59:49.570Z,-5.91
2018-02-25T08:02:17.837Z,-5.87
2018-02-25T08:04:46.112Z,-6.02
2018-02-25T08:07:15.150Z,-5.68
2018-02-25T08:09:53.130Z,-5.74
2018-02-25T08:12:22.170Z,-5.40
2018-02-25T08:14:50.494Z,-5.48
2018-02-25T08:17:18.760Z,-5.37
2018-02-25T08:19:47.038Z,-5.04
2018-02-25T08:22:15.307Z,-5.24
2018-02-25T08:24:43.580Z,-5.42
2018-02-25T08:27:12.622Z,-5.35
2018-02-25T08:29:40.910Z,-4.97
2018-02-25T08:32:09.181Z,-5.20
2018-02-25T08:34:37.453Z,-5.36
2018-02-25T08:37:06.488Z,-5.45
2018-02-25T08:39:34.765Z,-5.50
2018-02-25T08:42:03.024Z,-5.07
2018-02-25T08:44:32.056Z,-5.23
2018-02-25T08:47:00.326Z,-4.89
2018-02-25T08:49:29.369Z,-4.57
2018-02-25T08:51:57.629Z,-4.47
2018-02-25T08:54:25.898Z,-4.71
2018-02-25T08:56:54.925Z,-4.49
2018-02-25T08:59:23.205Z,-4.50
2018-02-25T09:01:52.241Z,-4.71
2018-02-25T09:04:20.766Z,-5.03
2018-02-25T09:06:49.045Z,-4.54
2018-02-25T09:09:17.326Z,-4.49
2018-02-25T09:11:45.597Z,-4.48
2018-02-25T09:14:13.876Z,-4.07
2018-02-25T09:16:42.152Z,-4.30
2018-02-25T09:19:10.431Z,-3.84
2018-02-25T09:21:39.469Z,-4.09
2018-02-25T09:24:07.752Z,-3.90
2018-02-25T09:26:36.693Z,-3.74
2018-02-25T09:29:04.970Z,-3.78
2018-02-25T09:31:33.587Z,-3.86
2018-02-25T09:34:01.848Z,-3.43
2018-02-25T09:36:30.126Z,-3.66
2018-02-25T09:38:58.401Z,-3.38
2018-02-25T09:41:26.730Z,-3.68
2018-02-25T09:43:55.012Z,-3.80
2018-02-25T09:46:23.281Z,-3.67
2018-02-25T09:48:51.544Z,-4.02
2018-02-25T09:51:19.825Z,-3.50
2018-02-25T09:53:48.864Z,-3.87
2018-02-25T09:56:17.139Z,-3.12
2018-02-25T09:58:45.404Z,-3.43
2018-02-25T10:01:14.455Z,-4.01
2018-02-25T10:03:42.739Z,-4.14
2018-02-25T10:06:11.004Z,-4.15
2018-02-25T10:08:39.277Z,-3.65
2018-02-25T10:11:07.674Z,-3.79
2018-02-25T10:13:35.948Z,-4.09
2018-02-25T10:16:04.993Z,-3.61
2018-02-25T10:18:33.279Z,-3.82
2018-02-25T10:21:01.557Z,-3.65
2018-02-25T10:23:29.819Z,-3.39
2018-02-25T10:25:58.858Z,-3.06
2018-02-25T10:28:27.888Z,-2.72
2018-02-25T10:30:56.168Z,-3.32
2018-02-25T10:33:24.434Z,-3.24
2018-02-25T10:35:52.714Z,-3.37
2018-02-25T10:38:20.969Z,-3.43
2018-02-25T10:40:49.236Z,-3.46
2018-02-25T10:43:17.508Z,-3.42
2018-02-25T10:45:45.782Z,-3.32
2018-02-25T10:48:14.045Z,-3.40
2018-02-25T10:50:43.753Z,-3.11
2018-02-25T10:53:12.784Z,-2.73
2018-02-25T10:55:41.060Z,-3.60
2018-02-25T10:58:28.945Z,-3.38
2018-02-25T11:01:03.360Z,-3.90
2018-02-25T11:03:31.637Z,-3.66
2018-02-25T11:06:00.165Z,-3.34
2018-02-25T11:08:28.435Z,-3.28
2018-02-25T11:10:56.704Z,-3.68
2018-02-25T11:13:25.797Z,-3.61
2018-02-25T11:16:07.863Z,-3.48
2018-02-25T11:18:37.530Z,-3.61
2018-02-25T11:21:06.573Z,-3.39
2018-02-25T11:23:34.841Z,-3.77
2018-02-25T11:26:05.238Z,-3.59
2018-02-25T11:28:34.035Z,-3.08
2018-02-25T11:31:02.303Z,-2.56
2018-02-25T11:33:30.572Z,-2.58
2018-02-25T11:35:59.618Z,-2.78
2018-02-25T11:38:27.896Z,-2.32
2018-02-25T11:40:56.169Z,-2.86
2018-02-25T11:43:24.435Z,-3.15
2018-02-25T11:45:53.530Z,-3.27
2018-02-25T11:48:21.796Z,-2.85
2018-02-25T11:50:50.068Z,-2.58
2018-02-25T11:53:18.348Z,-2.69
2018-02-25T11:55:47.375Z,-2.87
2018-02-25T11:58:15.648Z,-2.96
2018-02-25T12:00:43.913Z,-2.76
2018-02-25T12:03:12.170Z,-2.54
2018-02-25T12:05:40.450Z,-2.70
2018-02-25T12:08:08.721Z,-2.55
2018-02-25T12:10:36.989Z,-2.34
2018-02-25T12:13:05.264Z,-2.36
2018-02-25T12:15:33.546Z,-1.80
2018-02-25T12:18:01.800Z,-1.52
2018-02-25T12:20:30.846Z,-1.03
2018-02-25T12:22:59.114Z,-0.71
2018-02-25T12:25:27.377Z,-1.14
2018-02-25T12:27:55.667Z,-1.45
2018-02-25T12:30:23.925Z,-0.96
2018-02-25T12:32:52.201Z,-0.95
2018-02-25T12:35:20.465Z,-1.01
2018-02-25T12:37:48.728Z,-1.86
2018-02-25T12:40:17.757Z,-1.87
2018-02-25T12:42:46.033Z,-2.04
2018-02-25T12:45:15.048Z,-1.79
2018-02-25T12:47:43.312Z,-1.43
2018-02-25T12:50:12.328Z,-1.78
2018-02-25T12:52:40.603Z,-1.76
2018-02-25T12:55:08.852Z,-1.96
2018-02-25T12:57:37.119Z,-2.45
2018-02-25T13:00:06.156Z,-2.21
2018-02-25T13:02:34.430Z,-1.63
2018-02-25T13:05:02.837Z,-1.88
2018-02-25T13:07:31.103Z,-2.35
2018-02-25T13:09:59.372Z,-2.53
2018-02-25T13:12:27.637Z,-2.82
2018-02-25T13:14:56.662Z,-2.59
2018-02-25T13:17:24.923Z,-1.98
2018-02-25T13:19:53.951Z,-2.53
2018-02-25T13:22:22.234Z,-2.58
2018-02-25T13:24:51.270Z,-2.79
2018-02-25T13:27:19.543Z,-2.42
2018-02-25T13:29:48.336Z,-2.37
2018-02-25T13:32:16.605Z,-2.66
2018-02-25T13:34:45.640Z,-2.76
2018-02-25T13:37:13.900Z,-2.70
2018-02-25T13:39:43.324Z,-3.18
2018-02-25T13:42:12.374Z,-3.21
2018-02-25T13:44:40.625Z,-2.24
2018-02-25T13:47:08.897Z,-2.56
2018-02-25T13:49:37.937Z,-2.55
2018-02-25T13:52:06.223Z,-2.59
2018-02-25T13:54:34.485Z,-2.42
2018-02-25T13:57:03.525Z,-2.80
2018-02-25T13:59:31.781Z,-2.16
2018-02-25T14:02:00.831Z,-2.16
2018-02-25T14:04:29.101Z,-2.75
2018-02-25T14:06:57.379Z,-2.92
2018-02-25T14:09:25.757Z,-2.69
2018-02-25T14:11:54.028Z,-2.83
2018-02-25T14:14:23.074Z,-3.12
2018-02-25T14:16:51.362Z,-2.25
2018-02-25T14:19:19.646Z,-2.42
2018-02-25T14:21:47.918Z,-2.78
2018-02-25T14:24:16.953Z,-3.04
2018-02-25T14:26:45.221Z,-3.31
2018-02-25T14:29:13.506Z,-3.13
2018-02-25T14:31:41.773Z,-2.93
2018-02-25T14:34:10.830Z,-3.02
2018-02-25T14:36:39.093Z,-3.13
2018-02-25T14:39:07.370Z,-3.11
2018-02-25T14:41:35.635Z,-3.10
2018-02-25T14:44:03.917Z,-2.96
2018-02-25T14:46:32.195Z,-2.88
2018-02-25T14:49:00.466Z,-2.82
2018-02-25T14:51:28.732Z,-2.91
2018-02-25T14:53:57.013Z,-2.81
2018-02-25T14:56:25.273Z,-3.26
2018-02-25T14:58:54.329Z,-3.49
2018-02-25T15:01:22.596Z,-3.51
2018-02-25T15:03:50.874Z,-3.54
2018-02-25T15:06:19.144Z,-3.51
2018-02-25T15:08:54.139Z,-3.02
2018-02-25T15:11:22.638Z,-3.32
2018-02-25T15:13:50.920Z,-3.22
2018-02-25T15:16:19.193Z,-3.08
2018-02-25T15:18:47.477Z,-2.84
2018-02-25T15:21:16.509Z,-3.02
2018-02-25T15:23:44.824Z,-2.98
2018-02-25T15:26:13.094Z,-2.97
2018-02-25T15:28:41.376Z,-2.80
2018-02-25T15:31:09.652Z,-3.05
2018-02-25T15:33:37.936Z,-3.51
2018-02-25T15:36:06.218Z,-3.03
2018-02-25T15:38:34.485Z,-2.67
2018-02-25T15:41:03.539Z,-2.79
2018-02-25T15:43:31.828Z,-2.75
2018-02-25T15:46:00.156Z,-2.89
2018-02-25T15:48:28.402Z,-3.25
2018-02-25T15:50:56.684Z,-3.18
2018-02-25T15:53:24.946Z,-3.71
2018-02-25T15:55:54.006Z,-3.75
2018-02-25T15:58:22.308Z,-3.72
2018-02-25T16:00:50.596Z,-3.92
2018-02-25T16:03:18.882Z,-3.57
2018-02-25T16:05:47.143Z,-3.18
2018-02-25T16:08:15.430Z,-3.38
2018-02-25T16:10:43.713Z,-3.29
2018-02-25T16:13:11.985Z,-3.15
2018-02-25T16:15:40.265Z,-3.13
2018-02-25T16:18:09.304Z,-3.57
2018-02-25T16:20:37.564Z,-3.32
2018-02-25T16:23:05.856Z,-3.42
2018-02-25T16:25:34.117Z,-4.12
2018-02-25T16:28:03.166Z,-4.23
2018-02-25T16:30:32.369Z,-4.14
2018-02-25T16:33:00.648Z,-3.58
2018-02-25T16:35:28.940Z,-3.57
2018-02-25T16:37:57.249Z,-3.71
2018-02-25T16:40:26.409Z,-4.05
2018-02-25T16:42:54.684Z,-3.86
2018-02-25T16:45:22.953Z,-4.19
2018-02-25T16:47:51.226Z,-4.08
2018-02-25T16:50:19.493Z,-4.29
2018-02-25T16:52:47.759Z,-4.19
2018-02-25T16:55:16.792Z,-3.82
2018-02-25T16:57:45.065Z,-3.88
2018-02-25T17:00:13.657Z,-4.12
2018-02-25T17:02:41.949Z,-3.91
2018-02-25T17:05:10.214Z,-3.39
2018-02-25T17:07:38.503Z,-3.61
2018-02-25T17:10:07.544Z,-3.52
2018-02-25T17:12:35.812Z,-3.78
2018-02-25T17:15:04.950Z,-4.07
2018-02-25T17:17:33.222Z,-4.44
2018-02-25T17:20:01.492Z,-4.24
2018-02-25T17:22:30.525Z,-4.24
2018-02-25T17:24:58.797Z,-4.02
2018-02-25T17:27:27.066Z,-4.24
2018-02-25T17:29:56.103Z,-4.48
2018-02-25T17:32:24.391Z,-4.09
2018-02-25T17:34:52.679Z,-4.40
2018-02-25T17:37:20.950Z,-4.82
2018-02-25T17:39:49.980Z,-4.04
2018-02-25T17:42:18.257Z,-4.57
2018-02-25T17:44:46.525Z,-4.56
2018-02-25T17:47:15.548Z,-4.45
2018-02-25T17:49:43.825Z,-3.87
2018-02-25T17:52:12.865Z,-3.61
2018-02-25T17:54:41.149Z,-3.33
2018-02-25T17:57:09.442Z,-2.80
2018-02-25T17:59:37.742Z,-2.78
2018-02-25T18:02:06.014Z,-2.61
2018-02-25T18:04:34.290Z,-2.32
2018-02-25T18:07:02.562Z,-2.06
2018-02-25T18:09:31.605Z,-2.31
2018-02-25T18:11:59.869Z,-1.99
2018-02-25T18:14:28.148Z,-2.51
2018-02-25T18:16:57.198Z,-2.37
2018-02-25T18:19:25.461Z,-2.76
2018-02-25T18:21:53.728Z,-3.08
2018-02-25T18:24:22.773Z,-3.14
2018-02-25T18:26:51.050Z,-3.34
2018-02-25T18:29:19.324Z,-3.39
2018-02-25T18:31:48.530Z,-3.21
2018-02-25T18:34:16.803Z,-2.73
2018-02-25T18:36:45.827Z,-2.78
2018-02-25T18:39:14.104Z,-2.89
2018-02-25T18:41:43.138Z,-2.68
2018-02-25T18:44:11.405Z,-2.51
2018-02-25T18:46:39.668Z,-2.78
2018-02-25T18:49:07.945Z,-3.37
2018-02-25T18:51:36.212Z,-3.12
2018-02-25T18:54:04.493Z,-3.38
2018-02-25T18:56:32.780Z,-3.26
2018-02-25T18:59:01.048Z,-3.63
2018-02-25T19:01:29.330Z,-4.07
2018-02-25T19:03:59.289Z,-3.96
2018-02-25T19:06:27.553Z,-3.74
2018-02-25T19:08:55.844Z,-3.98
2018-02-25T19:11:24.103Z,-3.59
2018-02-25T19:13:53.145Z,-3.76
2018-02-25T19:16:21.395Z,-3.90
2018-02-25T19:18:50.500Z,-3.90
2018-02-25T19:21:18.721Z,-3.48
2018-02-25T19:23:46.992Z,-3.87
2018-02-25T19:26:15.258Z,-3.36
2018-02-25T19:28:44.291Z,-3.49
2018-02-25T19:31:12.565Z,-3.90
2018-02-25T19:33:41.606Z,-4.10
2018-02-25T19:36:15.316Z,-3.82
2018-02-25T19:38:49.079Z,-3.94
2018-02-25T19:41:22.847Z,-3.98
2018-02-25T19:43:51.126Z,-4.16
2018-02-25T19:46:19.442Z,-4.02
2018-02-25T19:48:47.735Z,-4.50
2018-02-25T19:51:16.006Z,-4.02
2018-02-25T19:53:44.302Z,-4.02
2018-02-25T19:56:12.563Z,-3.98
2018-02-25T19:58:40.831Z,-3.95
2018-02-25T20:01:09.886Z,-4.21
2018-02-25T20:03:38.149Z,-4.58
2018-02-25T20:06:06.452Z,-4.36
2018-02-25T20:08:35.617Z,-4.39
2018-02-25T20:11:03.906Z,-4.52
2018-02-25T20:13:32.163Z,-4.17
2018-02-25T20:16:00.439Z,-4.44
2018-02-25T20:18:28.709Z,-3.77
2018-02-25T20:20:56.976Z,-3.94
2018-02-25T20:23:26.017Z,-3.90
2018-02-25T20:25:54.290Z,-4.03
2018-02-25T20:28:22.552Z,-3.58
2018-02-25T20:30:51.593Z,-3.64
2018-02-25T20:33:19.861Z,-3.74
2018-02-25T20:35:48.128Z,-3.50
2018-02-25T20:38:16.417Z,-3.25
2018-02-25T20:40:45.452Z,-3.35
2018-02-25T20:43:13.720Z,-3.70
2018-02-25T20:45:42.764Z,-3.45
2018-02-25T20:48:11.029Z,-3.46
2018-02-25T20:50:39.296Z,-3.49
2018-02-25T20:53:08.340Z,-3.49
2018-02-25T20:55:36.613Z,-3.27
2018-02-25T20:58:04.881Z,-3.91
2018-02-25T21:00:33.921Z,-3.46
2018-02-25T21:03:02.961Z,-3.27
2018-02-25T21:05:31.244Z,-3.35
2018-02-25T21:07:59.505Z,-3.37
2018-02-25T21:10:27.781Z,-3.22
2018-02-25T21:12:56.053Z,-3.39
2018-02-25T21:15:25.088Z,-3.52
2018-02-25T21:17:56.497Z,-3.72
2018-02-25T21:20:24.773Z,-3.35
2018-02-25T21:22:53.042Z,-3.91
2018-02-25T21:25:21.312Z,-3.67
2018-02-25T21:27:49.582Z,-3.61
2018-02-25T21:30:17.860Z,-3.18
2018-02-25T21:32:46.940Z,-3.17
2018-02-25T21:35:15.168Z,-3.12
2018-02-25T21:37:43.432Z,-2.76
2018-02-25T21:40:12.800Z,-2.39
2018-02-25T21:42:41.056Z,-2.62
2018-02-25T21:45:09.338Z,-2.90
2018-02-25T21:47:37.600Z,-2.77
2018-02-25T21:50:05.864Z,-3.06
2018-02-25T21:52:34.120Z,-2.99
2018-02-25T21:55:02.433Z,-2.91
2018-02-25T21:57:36.218Z,-2.81
2018-02-25T22:00:09.919Z,-3.11
2018-02-25T22:02:44.431Z,-3.37
2018-02-25T22:05:12.736Z,-3.18
2018-02-25T22:07:40.973Z,-3.56
2018-02-25T22:10:09.251Z,-3.54
2018-02-25T22:12:37.522Z,-3.82
2018-02-25T22:15:05.789Z,-3.70
2018-02-25T22:17:34.062Z,-3.66
2018-02-25T22:20:03.201Z,-3.53
2018-02-25T22:22:31.485Z,-3.55
2018-02-25T22:25:00.525Z,-3.52
2018-02-25T22:27:28.793Z,-3.57
2018-02-25T22:29:57.070Z,-3.46
2018-02-25T22:32:25.345Z,-3.46
2018-02-25T22:34:54.400Z,-3.46
2018-02-25T22:37:22.796Z,-3.29
2018-02-25T22:39:51.056Z,-3.34
2018-02-25T22:42:19.336Z,-2.98
2018-02-25T22:44:47.600Z,-3.45
2018-02-25T22:47:16.646Z,-2.80
2018-02-25T22:49:44.917Z,-2.82
2018-02-25T22:52:13.180Z,-2.76
2018-02-25T22:54:42.217Z,-2.95
2018-02-25T22:57:10.490Z,-2.69
2018-02-25T22:59:39.516Z,-2.45
2018-02-25T23:02:07.788Z,-2.71
2018-02-25T23:04:36.827Z,-2.37
2018-02-25T23:07:05.104Z,-2.53
2018-02-25T23:09:33.370Z,-2.27
2018-02-25T23:12:01.649Z,-2.04
2018-02-25T23:14:30.675Z,-1.63
2018-02-25T23:16:58.978Z,-1.61
2018-02-25T23:19:27.257Z,-1.85
2018-02-25T23:21:55.532Z,-2.21
2018-02-25T23:24:23.801Z,-1.76
2018-02-25T23:26:52.862Z,-1.57
2018-02-25T23:29:21.122Z,-1.34
2018-02-25T23:31:49.414Z,-1.37
2018-02-25T23:34:17.682Z,-2.08
2018-02-25T23:36:46.724Z,-2.08
2018-02-25T23:39:14.992Z,-2.16
2018-02-25T23:41:43.286Z,-2.07
2018-02-25T23:44:11.547Z,-1.91
2018-02-25T23:46:40.612Z,-2.19
2018-02-25T23:49:08.894Z,-2.38
2018-02-25T23:51:37.170Z,-2.61
2018-02-25T23:54:05.449Z,-3.12
2018-02-25T23:56:33.721Z,-2.76
2018-02-25T23:59:01.983Z,-2.75
